Time;durP1;ratioP1;P1;durP2;ratioP2;P2;SDS_P1;SDS_P2;PMS_P1;PMS_P2;Temp;Humidity;BMP_temperature;BMP_pressure;BME280_temperature;BME280_humidity;BME280_pressure;Samples;Min_cycle;Max_cycle;Signal;HPM_P1;HPM_P2
2022/09/05 00:02:41;;;;;;;1.75;0.60;;;17.70;99.90;;;;;;20994010;28;20045;-81
2022/09/05 00:12:43;;;;;;;1.50;0.60;;;17.60;99.90;;;;;;21006371;28;20081;-81
2022/09/05 00:23:01;;;;;;;1.17;0.68;;;17.60;99.90;;;;;;21011517;28;20082;-81
2022/09/05 00:33:26;;;;;;;1.60;0.65;;;17.40;99.90;;;;;;20989176;28;20067;-81
2022/09/05 00:43:37;;;;;;;1.45;0.65;;;17.40;99.90;;;;;;21001360;28;20482;-81
2022/09/05 00:54:01;;;;;;;1.17;0.50;;;17.30;99.90;;;;;;21003682;28;20056;-81
2022/09/05 01:04:18;;;;;;;1.63;0.60;;;17.20;99.90;;;;;;20991593;28;20086;-78
2022/09/05 01:14:34;;;;;;;2.30;0.70;;;17.20;99.90;;;;;;21008969;28;20769;-78
2022/09/05 01:25:04;;;;;;;1.25;0.47;;;17.20;99.90;;;;;;20996277;28;20094;-79
2022/09/05 01:35:27;;;;;;;1.13;0.47;;;17.10;99.90;;;;;;20994960;28;20625;-79
2022/09/05 01:45:50;;;;;;;1.65;0.68;;;17.00;99.90;;;;;;20996877;28;20670;-79
2022/09/05 01:56:18;;;;;;;1.17;0.60;;;16.90;99.90;;;;;;20996790;28;20372;-78
2022/09/05 02:06:38;;;;;;;1.10;0.50;;;16.90;99.90;;;;;;21004605;28;20507;-79
2022/09/05 02:16:43;;;;;;;2.92;0.70;;;16.90;99.90;;;;;;20979249;28;20969;-78
2022/09/05 02:27:08;;;;;;;2.90;0.68;;;16.80;99.90;;;;;;21011264;28;20039;-79
2022/09/05 02:37:31;;;;;;;0.95;0.45;;;16.70;99.90;;;;;;21014042;28;20039;-79
2022/09/05 02:47:53;;;;;;;0.95;0.50;;;16.70;99.90;;;;;;21023068;28;20731;-79
2022/09/05 02:58:23;;;;;;;1.20;0.40;;;16.60;99.90;;;;;;21002636;28;20455;-79
2022/09/05 03:09:02;;;;;;;0.80;0.40;;;16.60;99.90;;;;;;21003843;28;21552;-79
2022/09/05 03:19:32;;;;;;;1.83;0.40;;;16.50;99.90;;;;;;21013897;28;20629;-78
2022/09/05 03:29:33;;;;;;;2.33;0.55;;;16.40;99.90;;;;;;21028179;28;21707;-79
2022/09/05 03:39:51;;;;;;;1.58;0.55;;;16.30;99.90;;;;;;21008190;28;20055;-79
2022/09/05 03:50:20;;;;;;;2.30;0.50;;;16.20;99.90;;;;;;20988742;28;21124;-79
2022/09/05 04:00:24;;;;;;;1.30;0.75;;;16.10;99.90;;;;;;21009602;28;21631;-79
2022/09/05 04:10:49;;;;;;;1.33;0.70;;;16.10;99.90;;;;;;20999915;28;20507;-79
2022/09/05 04:21:02;;;;;;;1.60;1.00;;;16.10;99.90;;;;;;20994285;28;20615;-79
2022/09/05 04:31:20;;;;;;;2.45;0.77;;;16.10;99.90;;;;;;20991506;28;20089;-78
2022/09/05 04:41:26;;;;;;;2.90;1.30;;;16.10;99.90;;;;;;21012398;28;20086;-78
2022/09/05 04:51:55;;;;;;;4.90;1.75;;;16.30;99.90;;;;;;20991650;28;20554;-78
2022/09/05 05:02:01;;;;;;;1.85;1.33;;;16.30;99.90;;;;;;20980854;28;20048;-78
2022/09/05 05:12:22;;;;;;;2.58;1.30;;;16.20;99.90;;;;;;20995949;28;20037;-79
2022/09/05 05:22:24;;;;;;;4.07;1.35;;;16.10;99.90;;;;;;20997534;28;20438;-78
2022/09/05 05:32:32;;;;;;;3.33;1.73;;;16.20;99.90;;;;;;20998823;28;20086;-81
2022/09/05 05:42:35;;;;;;;2.10;1.38;;;16.50;99.90;;;;;;20996611;28;20098;-81
2022/09/05 05:52:54;;;;;;;3.45;1.42;;;16.70;99.90;;;;;;20973944;28;20045;-79
2022/09/05 06:03:32;;;;;;;3.38;1.73;;;17.00;99.90;;;;;;20991129;28;20552;-80
2022/09/05 06:13:52;;;;;;;2.20;1.20;;;17.30;99.90;;;;;;20899981;28;20718;-79
2022/09/05 06:24:27;;;;;;;3.38;1.13;;;17.60;99.90;;;;;;20984118;28;20350;-79
2022/09/05 06:34:57;;;;;;;2.53;1.08;;;17.90;99.90;;;;;;20985117;28;20833;-79
2022/09/05 06:45:01;;;;;;;3.97;2.42;;;18.30;99.90;;;;;;21008542;28;20029;-80
2022/09/05 06:55:53;;;;;;;2.55;1.75;;;18.80;99.90;;;;;;21019290;28;20040;-79
2022/09/05 07:06:33;;;;;;;3.33;1.95;;;19.20;99.90;;;;;;20854383;28;20040;-79
2022/09/05 07:16:46;;;;;;;3.25;1.42;;;19.70;99.90;;;;;;21001019;28;20047;-78
2022/09/05 07:26:48;;;;;;;5.15;1.98;;;20.00;99.90;;;;;;20993815;28;20040;-78
2022/09/05 07:36:55;;;;;;;3.63;1.30;;;20.40;99.90;;;;;;20990962;28;22357;-77
2022/09/05 07:47:05;;;;;;;5.03;1.90;;;20.50;99.90;;;;;;20991428;28;21162;-78
2022/09/05 07:57:09;;;;;;;4.35;1.00;;;20.60;99.90;;;;;;21008051;28;20035;-79
2022/09/05 08:07:28;;;;;;;1.40;0.73;;;21.10;99.90;;;;;;21018702;28;20386;-78
2022/09/05 08:17:31;;;;;;;5.30;1.40;;;21.90;99.90;;;;;;20995178;28;20453;-78
2022/09/05 08:27:59;;;;;;;1.27;0.68;;;22.70;99.90;;;;;;21018523;28;20648;-78
2022/09/05 08:38:00;;;;;;;4.88;1.38;;;23.40;99.90;;;;;;20994848;28;20972;-78
2022/09/05 08:48:38;;;;;;;2.13;0.77;;;24.20;99.90;;;;;;20979160;28;21026;-77
2022/09/05 08:59:11;;;;;;;1.87;0.83;;;24.60;99.90;;;;;;20979349;28;21549;-78
2022/09/05 09:09:14;;;;;;;3.58;0.68;;;25.10;99.90;;;;;;20993880;28;20370;-77
2022/09/05 09:19:24;;;;;;;1.40;0.30;;;25.80;98.60;;;;;;20983000;28;20114;-77
2022/09/05 09:29:27;;;;;;;1.05;0.60;;;26.40;98.50;;;;;;20976374;28;20054;-77
2022/09/05 09:39:49;;;;;;;1.55;0.50;;;27.00;97.10;;;;;;20973736;28;20246;-77
2022/09/05 09:50:17;;;;;;;0.90;0.30;;;27.00;96.00;;;;;;20960617;28;20909;-77
2022/09/05 10:00:21;;;;;;;2.20;1.08;;;27.10;95.30;;;;;;20957414;28;20036;-77
2022/09/05 10:10:53;;;;;;;0.93;0.45;;;27.50;95.70;;;;;;20991749;28;20371;-77
2022/09/05 10:21:05;;;;;;;0.70;0.30;;;27.90;93.90;;;;;;20987977;28;20128;-77
2022/09/05 10:31:24;;;;;;;0.65;0.32;;;28.10;93.00;;;;;;20981678;28;20161;-77
2022/09/05 10:41:50;;;;;;;0.55;0.22;;;28.30;92.70;;;;;;20983618;28;20052;-77
2022/09/05 10:52:09;;;;;;;0.85;0.30;;;28.70;91.60;;;;;;20948249;28;20652;-77
2022/09/05 11:02:25;;;;;;;1.75;0.40;;;28.60;91.70;;;;;;20997198;28;20408;-77
2022/09/05 11:13:03;;;;;;;0.70;0.30;;;29.00;91.40;;;;;;20999132;28;20082;-77
2022/09/05 11:23:19;;;;;;;0.90;0.65;;;29.40;91.00;;;;;;21011089;28;20746;-77
2022/09/05 11:33:50;;;;;;;2.23;0.40;;;29.40;90.70;;;;;;20993679;28;20052;-77
2022/09/05 11:43:54;;;;;;;1.63;0.40;;;29.80;90.70;;;;;;20977804;28;20745;-77
2022/09/05 11:54:16;;;;;;;0.88;0.50;;;30.40;89.80;;;;;;20976766;28;20036;-77
2022/09/05 12:04:45;;;;;;;1.33;0.20;;;29.50;91.10;;;;;;20965302;28;20044;-77
2022/09/05 12:15:09;;;;;;;2.47;0.35;;;30.40;90.60;;;;;;20955430;28;20682;-77
2022/09/05 12:25:24;;;;;;;0.88;0.50;;;30.40;87.90;;;;;;20976017;28;20105;-77
2022/09/05 12:35:35;;;;;;;1.13;0.40;;;30.90;88.30;;;;;;20983432;28;20132;-77
2022/09/05 12:45:48;;;;;;;0.88;0.73;;;31.40;85.30;;;;;;20978921;28;20903;-77
2022/09/05 12:56:00;;;;;;;1.42;0.38;;;31.90;85.70;;;;;;20972276;28;20097;-78
2022/09/05 13:06:08;;;;;;;1.13;0.40;;;32.20;82.40;;;;;;20983725;28;20047;-78
2022/09/05 13:16:11;;;;;;;1.15;0.25;;;30.70;86.80;;;;;;20973242;28;20210;-78
2022/09/05 13:26:24;;;;;;;1.15;0.38;;;30.50;86.30;;;;;;20963796;28;20040;-78
2022/09/05 13:36:29;;;;;;;1.02;0.52;;;31.00;88.30;;;;;;21002693;28;20043;-78
2022/09/05 13:46:54;;;;;;;0.80;0.30;;;31.90;83.60;;;;;;21029868;28;20041;-78
2022/09/05 13:57:15;;;;;;;1.05;0.47;;;31.20;82.60;;;;;;20997922;28;20112;-78
2022/09/05 14:07:57;;;;;;;0.77;0.38;;;30.50;84.60;;;;;;20994666;28;20043;-78
2022/09/05 14:21:14;;;;;;;1.17;0.70;;;30.10;85.90;;;;;;20993261;28;20989;-78
2022/09/05 14:29:15;;;;;;;0.93;0.30;;;29.90;87.10;;;;;;20988820;28;21771;-78
2022/09/05 14:39:28;;;;;;;1.60;0.40;;;29.90;84.60;;;;;;20996276;28;20537;-78
2022/09/05 14:49:44;;;;;;;1.92;0.28;;;29.80;86.80;;;;;;20975675;28;20535;-78
2022/09/05 14:59:52;;;;;;;0.70;0.30;;;29.60;88.20;;;;;;20995737;28;20962;-78
2022/09/05 15:10:05;;;;;;;1.02;0.40;;;29.20;87.00;;;;;;20998891;28;20094;-78
2022/09/05 15:20:08;;;;;;;1.98;0.70;;;29.10;89.80;;;;;;20968867;28;20033;-78
2022/09/05 15:30:32;;;;;;;0.52;0.20;;;29.20;88.50;;;;;;20999200;28;20126;-78
2022/09/05 15:40:34;;;;;;;0.88;0.30;;;29.20;89.70;;;;;;20990363;28;20040;-78
2022/09/05 15:50:40;;;;;;;0.77;0.40;;;28.80;88.60;;;;;;20977778;28;20494;-78
2022/09/05 16:00:46;;;;;;;1.57;0.40;;;28.60;90.80;;;;;;20962839;28;20097;-78
2022/09/05 16:10:47;;;;;;;1.85;0.30;;;28.30;91.60;;;;;;20980867;28;20044;-78
2022/09/05 16:20:56;;;;;;;1.88;1.00;;;28.00;92.70;;;;;;20953580;28;20090;-78
2022/09/05 16:31:04;;;;;;;1.50;0.73;;;27.90;94.20;;;;;;20959358;28;20650;-78
2022/09/05 16:41:14;;;;;;;2.47;0.20;;;27.60;93.60;;;;;;20959626;28;20086;-78
2022/09/05 16:51:15;;;;;;;1.33;0.40;;;27.50;95.00;;;;;;20983810;28;20047;-78
2022/09/05 17:01:28;;;;;;;1.55;0.70;;;27.10;96.30;;;;;;21006624;28;20058;-78
2022/09/05 17:11:32;;;;;;;1.38;0.60;;;26.90;95.30;;;;;;20979556;28;20121;-78
2022/09/05 17:21:38;;;;;;;0.60;0.30;;;26.70;95.20;;;;;;21010612;28;20548;-78
2022/09/05 17:31:48;;;;;;;0.67;0.50;;;26.60;96.50;;;;;;20980278;28;20044;-78
2022/09/05 17:42:01;;;;;;;2.20;0.40;;;26.30;96.80;;;;;;20991396;28;20787;-78
2022/09/05 17:52:15;;;;;;;1.48;0.43;;;26.10;97.60;;;;;;20992387;28;20655;-78
2022/09/05 18:02:16;;;;;;;1.20;0.50;;;25.80;96.80;;;;;;20995505;28;20499;-77
2022/09/05 18:12:33;;;;;;;0.70;0.40;;;25.60;98.50;;;;;;20994987;28;20040;-78
2022/09/05 18:22:40;;;;;;;0.98;0.52;;;25.30;98.00;;;;;;21028093;28;20392;-78
2022/09/05 18:32:42;;;;;;;1.02;0.30;;;25.00;98.20;;;;;;21026669;28;20037;-78
2022/09/05 18:42:50;;;;;;;2.33;1.25;;;24.90;99.50;;;;;;20862292;28;20049;-78
2022/09/05 18:52:56;;;;;;;1.75;0.50;;;24.80;98.50;;;;;;20868334;28;20641;-78
2022/09/05 19:03:20;;;;;;;1.50;0.60;;;24.70;98.60;;;;;;20866911;28;20669;-78
2022/09/05 19:13:32;;;;;;;1.48;0.57;;;24.70;97.40;;;;;;20866239;28;20052;-78
2022/09/05 19:23:40;;;;;;;1.52;0.40;;;24.60;97.60;;;;;;20866203;28;20029;-78
2022/09/05 19:33:41;;;;;;;0.45;0.20;;;24.00;98.50;;;;;;20874793;28;20089;-78
2022/09/05 19:43:57;;;;;;;1.30;0.90;;;23.60;98.90;;;;;;21006903;28;20033;-78
2022/09/05 19:53:58;;;;;;;1.58;0.60;;;23.40;99.90;;;;;;20998295;28;20611;-78
2022/09/05 20:04:00;;;;;;;1.90;0.57;;;23.30;99.90;;;;;;21040038;28;20031;-78
2022/09/05 20:14:30;;;;;;;0.73;0.40;;;23.20;99.90;;;;;;21035806;28;20040;-79
2022/09/05 20:24:32;;;;;;;1.27;0.73;;;22.90;99.90;;;;;;20990506;28;20063;-78
2022/09/05 20:34:36;;;;;;;0.35;0.17;;;22.20;99.90;;;;;;20995983;28;20036;-78
2022/09/05 20:44:47;;;;;;;1.25;0.50;;;21.80;99.90;;;;;;20983781;28;20032;-78
2022/09/05 20:54:48;;;;;;;0.90;0.60;;;21.60;99.90;;;;;;20988432;28;20031;-78
2022/09/05 21:04:58;;;;;;;5.68;0.75;;;21.40;99.90;;;;;;20988887;28;20086;-78
2022/09/05 21:15:05;;;;;;;1.08;0.55;;;21.10;99.90;;;;;;20998475;28;20591;-78
2022/09/05 21:25:14;;;;;;;1.57;0.60;;;21.10;99.90;;;;;;21013164;28;20365;-78
2022/09/05 21:35:15;;;;;;;1.52;0.50;;;21.00;99.90;;;;;;20990578;28;20461;-78
2022/09/05 21:45:17;;;;;;;2.67;1.13;;;20.80;99.90;;;;;;21006690;28;20037;-79
2022/09/05 21:55:19;;;;;;;1.85;0.95;;;20.60;99.90;;;;;;20976098;28;20094;-78
2022/09/05 22:05:20;;;;;;;2.08;0.55;;;20.20;99.90;;;;;;21001783;28;20077;-79
2022/09/05 22:15:21;;;;;;;0.73;0.30;;;20.00;99.90;;;;;;21010661;28;20040;-79
2022/09/05 22:25:28;;;;;;;0.95;0.30;;;20.00;99.90;;;;;;21014211;28;20086;-79
2022/09/05 22:35:30;;;;;;;0.50;0.30;;;19.90;99.90;;;;;;20988986;28;20125;-79
2022/09/05 22:45:34;;;;;;;1.73;0.57;;;19.70;99.90;;;;;;21005492;28;20094;-79
2022/09/05 22:55:37;;;;;;;0.73;0.30;;;19.40;99.90;;;;;;20993842;28;20462;-79
2022/09/05 23:05:38;;;;;;;1.25;0.60;;;19.10;99.90;;;;;;20982423;28;20040;-80
2022/09/05 23:15:39;;;;;;;2.20;0.35;;;18.90;99.90;;;;;;20989222;28;20062;-80
2022/09/05 23:25:40;;;;;;;0.80;0.30;;;19.00;99.90;;;;;;21009144;28;20040;-80
2022/09/05 23:35:41;;;;;;;0.75;0.38;;;18.80;99.90;;;;;;20993028;28;20040;-79
2022/09/05 23:45:45;;;;;;;0.50;0.30;;;18.60;99.90;;;;;;20983236;28;20044;-79
2022/09/05 23:55:47;;;;;;;0.70;0.30;;;18.50;99.90;;;;;;21010830;28;20089;-80
